Main page
METAR-TAF:

METAR-TAF

Airports :

George Best Belfast City Airport

Belfast City, Northern Ireland

latitude: 54-36N, longitude: 005-53W, elevation: 5 m

Current weather observation

The report was made 13 minutes ago, at 14:20 UTC
Wind 10 kt from the West/Southwest, varying between Southwest and West/Northwest
Temperature 16°C
Humidity 59%
Pressure 1003 hPa
Visibility 10 km or more
Few clouds at a height of 3400 ft

METAR: EGAC 011420Z AUTO 25010KT 220V290 9999 FEW034 16/08 Q1003

Time: 15:33 (14:33 UTC)

Forecast

The report was made 3 hours and 35 minutes ago, at 10:58 UTC
Forecast valid from 01 at 12 UTC to 01 at 21 UTC
Wind 13 kt from the West/Southwest
Visibility 10 km or more
Scattered clouds at a height of 2500 ft
Temporary
from 01 at 12 UTC to 01 at 18 UTC
Wind 16 kt from the West with gusts up to 27 kt
Visibility: 6000 m
rain showers

TAF: EGAC 011058Z 0112/0121 25013KT 9999 SCT025 TEMPO 0112/0118 26016G27KT 6000 SHRA

Weather observations and forecasts of more than 4000 airports (METAR and TAF reports).

The available stations are represented by yellow and red dots on the map.

Hover mouse over dot to see the name of the station.

Then click to see weather observations and forecasts.

To change the map : click on the green buttons with a black cross to zoom in, on the green button with a dash to zoom out, or on the green arrows for adjacent maps.


METAR-TAF: